sensor_id;sensor_type;location;lat;lon;timestamp;P1;durP1;ratioP1;P2;durP2;ratioP2
4080;SDS011;2055;50.074;8.436;2023-05-07T00:01:27;0.70;;;0.60;;
4080;SDS011;2055;50.074;8.436;2023-05-07T00:03:52;0.60;;;0.50;;
4080;SDS011;2055;50.074;8.436;2023-05-07T00:06:18;0.70;;;0.60;;
4080;SDS011;2055;50.074;8.436;2023-05-07T00:08:44;0.60;;;0.50;;
4080;SDS011;2055;50.074;8.436;2023-05-07T00:11:10;0.70;;;0.60;;
4080;SDS011;2055;50.074;8.436;2023-05-07T00:13:35;0.47;;;0.43;;
4080;SDS011;2055;50.074;8.436;2023-05-07T00:16:01;0.47;;;0.43;;
4080;SDS011;2055;50.074;8.436;2023-05-07T00:18:27;0.60;;;0.50;;
4080;SDS011;2055;50.074;8.436;2023-05-07T00:20:53;0.60;;;0.50;;
4080;SDS011;2055;50.074;8.436;2023-05-07T00:23:18;0.60;;;0.50;;
4080;SDS011;2055;50.074;8.436;2023-05-07T00:25:44;0.83;;;0.73;;
4080;SDS011;2055;50.074;8.436;2023-05-07T00:28:10;1.80;;;0.73;;
4080;SDS011;2055;50.074;8.436;2023-05-07T00:30:35;3.13;;;1.70;;
4080;SDS011;2055;50.074;8.436;2023-05-07T00:33:01;0.60;;;0.50;;
4080;SDS011;2055;50.074;8.436;2023-05-07T00:35:26;0.70;;;0.60;;
4080;SDS011;2055;50.074;8.436;2023-05-07T00:37:53;0.70;;;0.60;;
4080;SDS011;2055;50.074;8.436;2023-05-07T00:40:18;0.60;;;0.50;;
4080;SDS011;2055;50.074;8.436;2023-05-07T00:42:44;0.77;;;0.67;;
4080;SDS011;2055;50.074;8.436;2023-05-07T00:45:12;0.70;;;0.60;;
4080;SDS011;2055;50.074;8.436;2023-05-07T00:47:38;0.83;;;0.73;;
4080;SDS011;2055;50.074;8.436;2023-05-07T00:50:04;0.67;;;0.57;;
4080;SDS011;2055;50.074;8.436;2023-05-07T00:52:30;0.70;;;0.60;;
4080;SDS011;2055;50.074;8.436;2023-05-07T00:54:56;0.70;;;0.60;;
4080;SDS011;2055;50.074;8.436;2023-05-07T00:57:22;0.80;;;0.70;;
4080;SDS011;2055;50.074;8.436;2023-05-07T00:59:50;0.70;;;0.60;;
4080;SDS011;2055;50.074;8.436;2023-05-07T01:02:16;0.70;;;0.60;;
4080;SDS011;2055;50.074;8.436;2023-05-07T01:04:42;0.60;;;0.50;;
4080;SDS011;2055;50.074;8.436;2023-05-07T01:07:07;0.60;;;0.50;;
4080;SDS011;2055;50.074;8.436;2023-05-07T01:09:33;0.60;;;0.50;;
4080;SDS011;2055;50.074;8.436;2023-05-07T01:12:00;0.67;;;0.57;;
4080;SDS011;2055;50.074;8.436;2023-05-07T01:14:25;0.60;;;0.50;;
4080;SDS011;2055;50.074;8.436;2023-05-07T01:16:52;0.60;;;0.50;;
4080;SDS011;2055;50.074;8.436;2023-05-07T01:19:18;0.60;;;0.50;;
4080;SDS011;2055;50.074;8.436;2023-05-07T01:21:48;0.67;;;0.57;;
4080;SDS011;2055;50.074;8.436;2023-05-07T01:24:14;0.70;;;0.60;;
4080;SDS011;2055;50.074;8.436;2023-05-07T01:26:40;0.60;;;0.50;;
4080;SDS011;2055;50.074;8.436;2023-05-07T01:29:08;0.70;;;0.60;;
4080;SDS011;2055;50.074;8.436;2023-05-07T01:31:34;0.70;;;0.60;;
4080;SDS011;2055;50.074;8.436;2023-05-07T01:34:01;0.77;;;0.67;;
4080;SDS011;2055;50.074;8.436;2023-05-07T01:36:29;0.70;;;0.60;;
4080;SDS011;2055;50.074;8.436;2023-05-07T01:38:55;0.80;;;0.70;;
4080;SDS011;2055;50.074;8.436;2023-05-07T01:41:22;0.80;;;0.70;;
4080;SDS011;2055;50.074;8.436;2023-05-07T01:43:48;0.60;;;0.50;;
4080;SDS011;2055;50.074;8.436;2023-05-07T01:46:15;0.70;;;0.60;;
4080;SDS011;2055;50.074;8.436;2023-05-07T01:48:43;0.60;;;0.50;;
4080;SDS011;2055;50.074;8.436;2023-05-07T01:51:10;0.70;;;0.60;;
4080;SDS011;2055;50.074;8.436;2023-05-07T01:53:36;0.73;;;0.63;;
4080;SDS011;2055;50.074;8.436;2023-05-07T01:56:02;0.70;;;0.60;;
4080;SDS011;2055;50.074;8.436;2023-05-07T01:58:28;0.70;;;0.60;;
4080;SDS011;2055;50.074;8.436;2023-05-07T02:00:54;0.60;;;0.50;;
4080;SDS011;2055;50.074;8.436;2023-05-07T02:03:19;0.60;;;0.50;;
4080;SDS011;2055;50.074;8.436;2023-05-07T02:05:45;1.03;;;0.93;;
4080;SDS011;2055;50.074;8.436;2023-05-07T02:08:10;1.43;;;1.33;;
4080;SDS011;2055;50.074;8.436;2023-05-07T02:10:36;0.53;;;0.47;;
4080;SDS011;2055;50.074;8.436;2023-05-07T02:13:01;0.40;;;0.40;;
4080;SDS011;2055;50.074;8.436;2023-05-07T02:15:27;0.60;;;0.50;;
4080;SDS011;2055;50.074;8.436;2023-05-07T02:18:02;0.50;;;0.50;;
4080;SDS011;2055;50.074;8.436;2023-05-07T02:20:29;0.60;;;0.50;;
4080;SDS011;2055;50.074;8.436;2023-05-07T02:22:55;0.60;;;0.50;;
4080;SDS011;2055;50.074;8.436;2023-05-07T02:25:20;0.40;;;0.40;;
4080;SDS011;2055;50.074;8.436;2023-05-07T02:27:46;0.60;;;0.50;;
4080;SDS011;2055;50.074;8.436;2023-05-07T02:30:12;0.40;;;0.40;;
4080;SDS011;2055;50.074;8.436;2023-05-07T02:32:38;0.70;;;0.60;;
4080;SDS011;2055;50.074;8.436;2023-05-07T02:35:04;0.63;;;0.53;;
4080;SDS011;2055;50.074;8.436;2023-05-07T02:37:30;0.60;;;0.50;;
4080;SDS011;2055;50.074;8.436;2023-05-07T02:39:55;0.60;;;0.50;;
4080;SDS011;2055;50.074;8.436;2023-05-07T02:42:21;0.60;;;0.50;;
4080;SDS011;2055;50.074;8.436;2023-05-07T02:44:46;0.70;;;0.60;;
4080;SDS011;2055;50.074;8.436;2023-05-07T02:47:13;0.60;;;0.50;;
4080;SDS011;2055;50.074;8.436;2023-05-07T02:49:40;0.70;;;0.60;;
4080;SDS011;2055;50.074;8.436;2023-05-07T02:52:05;0.60;;;0.50;;
4080;SDS011;2055;50.074;8.436;2023-05-07T02:54:31;0.60;;;0.50;;
4080;SDS011;2055;50.074;8.436;2023-05-07T02:56:57;0.60;;;0.50;;
4080;SDS011;2055;50.074;8.436;2023-05-07T02:59:23;0.60;;;0.50;;
4080;SDS011;2055;50.074;8.436;2023-05-07T03:01:48;0.60;;;0.50;;
4080;SDS011;2055;50.074;8.436;2023-05-07T03:04:14;0.60;;;0.50;;
4080;SDS011;2055;50.074;8.436;2023-05-07T03:06:40;0.40;;;0.40;;
4080;SDS011;2055;50.074;8.436;2023-05-07T03:09:05;0.40;;;0.40;;
4080;SDS011;2055;50.074;8.436;2023-05-07T03:11:31;0.40;;;0.40;;
4080;SDS011;2055;50.074;8.436;2023-05-07T03:13:56;0.40;;;0.40;;
4080;SDS011;2055;50.074;8.436;2023-05-07T03:16:22;0.60;;;0.50;;
4080;SDS011;2055;50.074;8.436;2023-05-07T03:18:47;0.47;;;0.43;;
4080;SDS011;2055;50.074;8.436;2023-05-07T03:21:13;0.40;;;0.40;;
4080;SDS011;2055;50.074;8.436;2023-05-07T03:23:38;0.40;;;0.40;;
4080;SDS011;2055;50.074;8.436;2023-05-07T03:26:04;0.40;;;0.40;;
4080;SDS011;2055;50.074;8.436;2023-05-07T03:28:29;0.60;;;0.50;;
4080;SDS011;2055;50.074;8.436;2023-05-07T03:30:55;0.60;;;0.50;;
4080;SDS011;2055;50.074;8.436;2023-05-07T03:33:20;0.83;;;0.73;;
4080;SDS011;2055;50.074;8.436;2023-05-07T03:35:46;0.60;;;0.50;;
4080;SDS011;2055;50.074;8.436;2023-05-07T03:38:11;0.47;;;0.43;;
4080;SDS011;2055;50.074;8.436;2023-05-07T03:40:37;0.60;;;0.50;;
4080;SDS011;2055;50.074;8.436;2023-05-07T03:43:02;0.70;;;0.60;;
4080;SDS011;2055;50.074;8.436;2023-05-07T03:45:28;0.60;;;0.50;;
4080;SDS011;2055;50.074;8.436;2023-05-07T03:47:53;0.60;;;0.50;;
4080;SDS011;2055;50.074;8.436;2023-05-07T03:50:19;0.60;;;0.50;;
4080;SDS011;2055;50.074;8.436;2023-05-07T03:52:45;0.60;;;0.50;;
4080;SDS011;2055;50.074;8.436;2023-05-07T03:55:10;0.60;;;0.50;;
4080;SDS011;2055;50.074;8.436;2023-05-07T03:57:36;0.40;;;0.40;;
4080;SDS011;2055;50.074;8.436;2023-05-07T04:00:02;0.60;;;0.50;;
4080;SDS011;2055;50.074;8.436;2023-05-07T04:02:28;0.60;;;0.50;;
4080;SDS011;2055;50.074;8.436;2023-05-07T04:04:54;0.60;;;0.50;;
4080;SDS011;2055;50.074;8.436;2023-05-07T04:07:19;0.60;;;0.50;;
4080;SDS011;2055;50.074;8.436;2023-05-07T04:09:45;0.60;;;0.50;;
4080;SDS011;2055;50.074;8.436;2023-05-07T04:12:10;0.60;;;0.50;;
4080;SDS011;2055;50.074;8.436;2023-05-07T04:14:36;0.60;;;0.50;;
4080;SDS011;2055;50.074;8.436;2023-05-07T04:17:01;0.60;;;0.50;;
4080;SDS011;2055;50.074;8.436;2023-05-07T04:19:27;0.63;;;0.53;;
4080;SDS011;2055;50.074;8.436;2023-05-07T04:21:53;1.23;;;1.13;;
4080;SDS011;2055;50.074;8.436;2023-05-07T04:24:18;0.63;;;0.53;;
4080;SDS011;2055;50.074;8.436;2023-05-07T04:26:45;0.60;;;0.50;;
4080;SDS011;2055;50.074;8.436;2023-05-07T04:29:10;0.60;;;0.50;;
4080;SDS011;2055;50.074;8.436;2023-05-07T04:31:36;1.03;;;0.93;;
4080;SDS011;2055;50.074;8.436;2023-05-07T04:34:01;0.60;;;0.50;;
4080;SDS011;2055;50.074;8.436;2023-05-07T04:36:27;0.60;;;0.50;;
4080;SDS011;2055;50.074;8.436;2023-05-07T04:38:54;0.60;;;0.50;;
4080;SDS011;2055;50.074;8.436;2023-05-07T04:41:19;0.40;;;0.40;;
4080;SDS011;2055;50.074;8.436;2023-05-07T04:43:45;0.60;;;0.50;;
4080;SDS011;2055;50.074;8.436;2023-05-07T04:46:11;0.70;;;0.60;;
4080;SDS011;2055;50.074;8.436;2023-05-07T04:48:36;0.60;;;0.50;;
4080;SDS011;2055;50.074;8.436;2023-05-07T04:51:02;0.60;;;0.50;;
4080;SDS011;2055;50.074;8.436;2023-05-07T04:53:28;0.60;;;0.50;;
4080;SDS011;2055;50.074;8.436;2023-05-07T04:55:56;0.40;;;0.40;;
4080;SDS011;2055;50.074;8.436;2023-05-07T04:58:22;0.60;;;0.50;;
4080;SDS011;2055;50.074;8.436;2023-05-07T05:00:48;1.60;;;1.13;;
4080;SDS011;2055;50.074;8.436;2023-05-07T05:03:14;0.70;;;0.60;;
4080;SDS011;2055;50.074;8.436;2023-05-07T05:05:40;0.70;;;0.60;;
4080;SDS011;2055;50.074;8.436;2023-05-07T05:08:05;0.83;;;0.73;;
4080;SDS011;2055;50.074;8.436;2023-05-07T05:10:31;0.60;;;0.50;;
4080;SDS011;2055;50.074;8.436;2023-05-07T05:12:56;0.60;;;0.50;;
4080;SDS011;2055;50.074;8.436;2023-05-07T05:15:22;0.60;;;0.50;;
4080;SDS011;2055;50.074;8.436;2023-05-07T05:17:48;0.47;;;0.43;;
4080;SDS011;2055;50.074;8.436;2023-05-07T05:20:13;0.40;;;0.40;;
4080;SDS011;2055;50.074;8.436;2023-05-07T05:22:39;0.60;;;0.50;;
4080;SDS011;2055;50.074;8.436;2023-05-07T05:25:05;0.60;;;0.50;;
4080;SDS011;2055;50.074;8.436;2023-05-07T05:27:31;0.60;;;0.50;;
4080;SDS011;2055;50.074;8.436;2023-05-07T05:29:56;0.40;;;0.40;;
4080;SDS011;2055;50.074;8.436;2023-05-07T05:32:22;0.63;;;0.53;;
4080;SDS011;2055;50.074;8.436;2023-05-07T05:34:47;0.70;;;0.50;;
4080;SDS011;2055;50.074;8.436;2023-05-07T05:37:13;0.83;;;0.70;;
4080;SDS011;2055;50.074;8.436;2023-05-07T05:39:38;0.70;;;0.60;;
4080;SDS011;2055;50.074;8.436;2023-05-07T05:42:04;0.70;;;0.60;;
4080;SDS011;2055;50.074;8.436;2023-05-07T05:44:29;0.63;;;0.53;;
4080;SDS011;2055;50.074;8.436;2023-05-07T05:46:55;0.60;;;0.50;;
4080;SDS011;2055;50.074;8.436;2023-05-07T05:49:22;0.60;;;0.50;;
4080;SDS011;2055;50.074;8.436;2023-05-07T05:51:48;0.67;;;0.57;;
4080;SDS011;2055;50.074;8.436;2023-05-07T05:54:13;0.60;;;0.50;;
4080;SDS011;2055;50.074;8.436;2023-05-07T05:56:40;1.70;;;0.80;;
4080;SDS011;2055;50.074;8.436;2023-05-07T05:59:06;0.60;;;0.50;;
4080;SDS011;2055;50.074;8.436;2023-05-07T06:01:32;0.70;;;0.60;;
4080;SDS011;2055;50.074;8.436;2023-05-07T06:03:57;0.80;;;0.70;;
4080;SDS011;2055;50.074;8.436;2023-05-07T06:06:23;0.73;;;0.70;;
4080;SDS011;2055;50.074;8.436;2023-05-07T06:08:49;0.60;;;0.50;;
4080;SDS011;2055;50.074;8.436;2023-05-07T06:11:14;1.00;;;0.90;;
4080;SDS011;2055;50.074;8.436;2023-05-07T06:13:40;0.60;;;0.50;;
4080;SDS011;2055;50.074;8.436;2023-05-07T06:16:05;0.70;;;0.60;;
4080;SDS011;2055;50.074;8.436;2023-05-07T06:18:31;0.80;;;0.70;;
4080;SDS011;2055;50.074;8.436;2023-05-07T06:20:57;0.67;;;0.57;;
4080;SDS011;2055;50.074;8.436;2023-05-07T06:23:22;0.60;;;0.50;;
4080;SDS011;2055;50.074;8.436;2023-05-07T06:25:48;0.70;;;0.60;;
4080;SDS011;2055;50.074;8.436;2023-05-07T06:28:17;0.60;;;0.50;;
4080;SDS011;2055;50.074;8.436;2023-05-07T06:30:43;0.70;;;0.60;;
4080;SDS011;2055;50.074;8.436;2023-05-07T06:33:09;0.60;;;0.50;;
4080;SDS011;2055;50.074;8.436;2023-05-07T06:35:34;0.60;;;0.50;;
4080;SDS011;2055;50.074;8.436;2023-05-07T06:38:00;1.10;;;0.90;;
4080;SDS011;2055;50.074;8.436;2023-05-07T06:40:26;1.00;;;0.93;;
4080;SDS011;2055;50.074;8.436;2023-05-07T06:42:51;0.70;;;0.60;;
4080;SDS011;2055;50.074;8.436;2023-05-07T06:45:17;0.70;;;0.60;;
4080;SDS011;2055;50.074;8.436;2023-05-07T06:47:44;1.00;;;0.90;;
4080;SDS011;2055;50.074;8.436;2023-05-07T06:50:09;0.90;;;0.80;;
4080;SDS011;2055;50.074;8.436;2023-05-07T06:52:35;0.67;;;0.57;;
4080;SDS011;2055;50.074;8.436;2023-05-07T06:55:00;0.80;;;0.70;;
4080;SDS011;2055;50.074;8.436;2023-05-07T06:57:26;0.90;;;0.80;;
4080;SDS011;2055;50.074;8.436;2023-05-07T06:59:52;0.70;;;0.60;;
4080;SDS011;2055;50.074;8.436;2023-05-07T07:02:17;0.97;;;0.80;;
4080;SDS011;2055;50.074;8.436;2023-05-07T07:04:43;1.23;;;0.97;;
4080;SDS011;2055;50.074;8.436;2023-05-07T07:07:09;1.10;;;1.00;;
4080;SDS011;2055;50.074;8.436;2023-05-07T07:09:35;2.17;;;1.23;;
4080;SDS011;2055;50.074;8.436;2023-05-07T07:12:00;3.33;;;1.30;;
4080;SDS011;2055;50.074;8.436;2023-05-07T07:14:26;0.73;;;0.63;;
4080;SDS011;2055;50.074;8.436;2023-05-07T07:16:52;0.67;;;0.60;;
4080;SDS011;2055;50.074;8.436;2023-05-07T07:19:17;0.93;;;0.80;;
4080;SDS011;2055;50.074;8.436;2023-05-07T07:21:43;0.70;;;0.60;;
4080;SDS011;2055;50.074;8.436;2023-05-07T07:24:09;1.10;;;1.00;;
4080;SDS011;2055;50.074;8.436;2023-05-07T07:26:35;0.80;;;0.70;;
4080;SDS011;2055;50.074;8.436;2023-05-07T07:29:00;1.00;;;0.90;;
4080;SDS011;2055;50.074;8.436;2023-05-07T07:31:26;0.80;;;0.70;;
4080;SDS011;2055;50.074;8.436;2023-05-07T07:33:51;0.87;;;0.77;;
4080;SDS011;2055;50.074;8.436;2023-05-07T07:36:17;2.20;;;1.13;;
4080;SDS011;2055;50.074;8.436;2023-05-07T07:38:42;0.80;;;0.70;;
4080;SDS011;2055;50.074;8.436;2023-05-07T07:41:08;0.90;;;0.80;;
4080;SDS011;2055;50.074;8.436;2023-05-07T07:43:34;0.80;;;0.70;;
4080;SDS011;2055;50.074;8.436;2023-05-07T07:46:00;1.10;;;1.00;;
4080;SDS011;2055;50.074;8.436;2023-05-07T07:48:26;0.80;;;0.70;;
4080;SDS011;2055;50.074;8.436;2023-05-07T07:50:51;1.40;;;1.20;;
4080;SDS011;2055;50.074;8.436;2023-05-07T07:53:17;0.80;;;0.70;;
4080;SDS011;2055;50.074;8.436;2023-05-07T07:55:43;1.50;;;1.40;;
4080;SDS011;2055;50.074;8.436;2023-05-07T07:58:08;0.80;;;0.70;;
4080;SDS011;2055;50.074;8.436;2023-05-07T08:00:34;2.70;;;0.80;;
4080;SDS011;2055;50.074;8.436;2023-05-07T08:03:00;1.67;;;1.40;;
4080;SDS011;2055;50.074;8.436;2023-05-07T08:05:26;0.70;;;0.60;;
4080;SDS011;2055;50.074;8.436;2023-05-07T08:07:51;0.97;;;0.87;;
4080;SDS011;2055;50.074;8.436;2023-05-07T08:10:18;2.10;;;1.60;;
4080;SDS011;2055;50.074;8.436;2023-05-07T08:12:50;0.70;;;0.70;;
4080;SDS011;2055;50.074;8.436;2023-05-07T08:15:15;1.43;;;1.33;;
4080;SDS011;2055;50.074;8.436;2023-05-07T08:17:41;3.03;;;1.90;;
4080;SDS011;2055;50.074;8.436;2023-05-07T08:20:07;1.63;;;1.53;;
4080;SDS011;2055;50.074;8.436;2023-05-07T08:22:34;0.70;;;0.60;;
4080;SDS011;2055;50.074;8.436;2023-05-07T08:25:00;0.70;;;0.60;;
4080;SDS011;2055;50.074;8.436;2023-05-07T08:27:26;0.70;;;0.60;;
4080;SDS011;2055;50.074;8.436;2023-05-07T08:29:51;1.87;;;1.80;;
4080;SDS011;2055;50.074;8.436;2023-05-07T08:32:17;1.70;;;0.97;;
4080;SDS011;2055;50.074;8.436;2023-05-07T08:34:42;1.70;;;1.63;;
4080;SDS011;2055;50.074;8.436;2023-05-07T08:37:08;1.97;;;1.87;;
4080;SDS011;2055;50.074;8.436;2023-05-07T08:39:33;1.00;;;0.90;;
4080;SDS011;2055;50.074;8.436;2023-05-07T08:42:00;2.23;;;2.03;;
4080;SDS011;2055;50.074;8.436;2023-05-07T08:44:28;6.87;;;1.60;;
4080;SDS011;2055;50.074;8.436;2023-05-07T08:47:00;1.00;;;0.90;;
4080;SDS011;2055;50.074;8.436;2023-05-07T08:49:27;2.93;;;2.17;;
4080;SDS011;2055;50.074;8.436;2023-05-07T08:51:53;1.40;;;1.30;;
4080;SDS011;2055;50.074;8.436;2023-05-07T08:54:18;1.33;;;1.27;;
4080;SDS011;2055;50.074;8.436;2023-05-07T08:56:45;0.90;;;0.80;;
4080;SDS011;2055;50.074;8.436;2023-05-07T08:59:11;1.40;;;1.30;;
4080;SDS011;2055;50.074;8.436;2023-05-07T09:01:37;1.27;;;1.17;;
4080;SDS011;2055;50.074;8.436;2023-05-07T09:04:03;1.00;;;0.90;;
4080;SDS011;2055;50.074;8.436;2023-05-07T09:06:30;1.73;;;1.63;;
4080;SDS011;2055;50.074;8.436;2023-05-07T09:08:56;2.70;;;2.20;;
4080;SDS011;2055;50.074;8.436;2023-05-07T09:11:23;1.10;;;1.00;;
4080;SDS011;2055;50.074;8.436;2023-05-07T09:13:55;0.87;;;0.77;;
4080;SDS011;2055;50.074;8.436;2023-05-07T09:16:23;1.10;;;1.00;;
4080;SDS011;2055;50.074;8.436;2023-05-07T09:18:52;2.60;;;1.73;;
4080;SDS011;2055;50.074;8.436;2023-05-07T09:21:20;1.63;;;1.53;;
4080;SDS011;2055;50.074;8.436;2023-05-07T09:23:47;0.90;;;0.80;;
4080;SDS011;2055;50.074;8.436;2023-05-07T09:26:15;1.77;;;1.67;;
4080;SDS011;2055;50.074;8.436;2023-05-07T09:28:41;1.00;;;0.90;;
4080;SDS011;2055;50.074;8.436;2023-05-07T09:31:07;3.30;;;2.13;;
4080;SDS011;2055;50.074;8.436;2023-05-07T09:33:33;1.40;;;1.30;;
4080;SDS011;2055;50.074;8.436;2023-05-07T09:36:02;2.93;;;2.37;;
4080;SDS011;2055;50.074;8.436;2023-05-07T09:38:28;4.17;;;2.30;;
4080;SDS011;2055;50.074;8.436;2023-05-07T09:43:48;1.50;;;1.40;;
4080;SDS011;2055;50.074;8.436;2023-05-07T09:46:19;1.50;;;1.40;;
4080;SDS011;2055;50.074;8.436;2023-05-07T09:48:52;1.03;;;1.00;;
4080;SDS011;2055;50.074;8.436;2023-05-07T09:51:33;1.20;;;1.10;;
4080;SDS011;2055;50.074;8.436;2023-05-07T09:54:17;2.47;;;2.07;;
4080;SDS011;2055;50.074;8.436;2023-05-07T09:56:44;3.43;;;1.93;;
4080;SDS011;2055;50.074;8.436;2023-05-07T09:59:10;1.00;;;0.90;;
4080;SDS011;2055;50.074;8.436;2023-05-07T10:01:38;3.50;;;2.20;;
4080;SDS011;2055;50.074;8.436;2023-05-07T10:04:07;1.30;;;1.20;;
4080;SDS011;2055;50.074;8.436;2023-05-07T10:06:34;1.20;;;1.10;;
4080;SDS011;2055;50.074;8.436;2023-05-07T10:09:00;1.20;;;1.10;;
4080;SDS011;2055;50.074;8.436;2023-05-07T10:11:26;1.90;;;1.37;;
4080;SDS011;2055;50.074;8.436;2023-05-07T10:13:53;1.10;;;1.00;;
4080;SDS011;2055;50.074;8.436;2023-05-07T10:16:19;2.30;;;2.10;;
4080;SDS011;2055;50.074;8.436;2023-05-07T10:18:46;0.80;;;0.70;;
4080;SDS011;2055;50.074;8.436;2023-05-07T10:21:16;1.03;;;0.93;;
4080;SDS011;2055;50.074;8.436;2023-05-07T10:23:44;1.40;;;1.30;;
4080;SDS011;2055;50.074;8.436;2023-05-07T10:26:13;1.13;;;1.03;;
4080;SDS011;2055;50.074;8.436;2023-05-07T10:28:41;4.60;;;1.50;;
4080;SDS011;2055;50.074;8.436;2023-05-07T10:33:55;1.53;;;1.53;;
4080;SDS011;2055;50.074;8.436;2023-05-07T10:36:23;0.90;;;0.80;;
4080;SDS011;2055;50.074;8.436;2023-05-07T10:38:50;1.77;;;1.67;;
4080;SDS011;2055;50.074;8.436;2023-05-07T10:41:16;1.40;;;1.30;;
4080;SDS011;2055;50.074;8.436;2023-05-07T10:43:44;0.90;;;0.80;;
4080;SDS011;2055;50.074;8.436;2023-05-07T10:46:20;1.10;;;1.00;;
4080;SDS011;2055;50.074;8.436;2023-05-07T10:51:28;1.43;;;1.40;;
4080;SDS011;2055;50.074;8.436;2023-05-07T10:56:42;1.50;;;1.40;;
4080;SDS011;2055;50.074;8.436;2023-05-07T11:01:49;1.33;;;1.23;;
4080;SDS011;2055;50.074;8.436;2023-05-07T11:04:19;1.33;;;1.23;;
4080;SDS011;2055;50.074;8.436;2023-05-07T11:17:31;2.60;;;2.43;;
4080;SDS011;2055;50.074;8.436;2023-05-07T11:19:59;1.13;;;1.10;;
4080;SDS011;2055;50.074;8.436;2023-05-07T11:25:01;2.67;;;2.20;;
4080;SDS011;2055;50.074;8.436;2023-05-07T11:27:28;1.30;;;1.20;;
4080;SDS011;2055;50.074;8.436;2023-05-07T11:29:54;1.07;;;0.97;;
4080;SDS011;2055;50.074;8.436;2023-05-07T11:32:27;1.40;;;1.30;;
4080;SDS011;2055;50.074;8.436;2023-05-07T11:34:54;1.77;;;1.67;;
4080;SDS011;2055;50.074;8.436;2023-05-07T11:37:21;1.60;;;1.50;;
4080;SDS011;2055;50.074;8.436;2023-05-07T11:39:47;1.80;;;1.70;;
4080;SDS011;2055;50.074;8.436;2023-05-07T11:45:02;2.40;;;2.20;;
4080;SDS011;2055;50.074;8.436;2023-05-07T11:47:32;1.93;;;1.67;;
4080;SDS011;2055;50.074;8.436;2023-05-07T11:50:01;1.77;;;1.67;;
4080;SDS011;2055;50.074;8.436;2023-05-07T11:52:29;1.60;;;1.50;;
4080;SDS011;2055;50.074;8.436;2023-05-07T11:54:55;1.77;;;1.67;;
4080;SDS011;2055;50.074;8.436;2023-05-07T11:57:22;1.40;;;1.30;;
4080;SDS011;2055;50.074;8.436;2023-05-07T11:59:52;2.57;;;2.37;;
4080;SDS011;2055;50.074;8.436;2023-05-07T12:02:22;2.00;;;1.90;;
4080;SDS011;2055;50.074;8.436;2023-05-07T12:04:49;1.40;;;1.30;;
4080;SDS011;2055;50.074;8.436;2023-05-07T12:07:18;1.53;;;1.43;;
4080;SDS011;2055;50.074;8.436;2023-05-07T12:09:47;0.90;;;0.80;;
4080;SDS011;2055;50.074;8.436;2023-05-07T12:12:13;1.93;;;1.83;;
4080;SDS011;2055;50.074;8.436;2023-05-07T12:14:44;1.00;;;0.90;;
4080;SDS011;2055;50.074;8.436;2023-05-07T12:17:11;1.90;;;1.80;;
4080;SDS011;2055;50.074;8.436;2023-05-07T12:19:39;1.20;;;1.10;;
4080;SDS011;2055;50.074;8.436;2023-05-07T12:22:07;1.10;;;1.00;;
4080;SDS011;2055;50.074;8.436;2023-05-07T12:27:12;1.60;;;1.50;;
4080;SDS011;2055;50.074;8.436;2023-05-07T12:29:49;2.43;;;1.73;;
4080;SDS011;2055;50.074;8.436;2023-05-07T12:32:15;2.00;;;1.73;;
4080;SDS011;2055;50.074;8.436;2023-05-07T12:34:42;2.07;;;1.93;;
4080;SDS011;2055;50.074;8.436;2023-05-07T12:37:12;1.93;;;1.87;;
4080;SDS011;2055;50.074;8.436;2023-05-07T12:39:37;1.20;;;1.10;;
4080;SDS011;2055;50.074;8.436;2023-05-07T12:42:04;1.80;;;1.70;;
4080;SDS011;2055;50.074;8.436;2023-05-07T12:44:30;1.43;;;1.33;;
4080;SDS011;2055;50.074;8.436;2023-05-07T12:46:57;1.60;;;1.50;;
4080;SDS011;2055;50.074;8.436;2023-05-07T12:49:23;1.60;;;1.50;;
4080;SDS011;2055;50.074;8.436;2023-05-07T12:51:49;1.80;;;1.70;;
4080;SDS011;2055;50.074;8.436;2023-05-07T12:54:31;1.77;;;1.67;;
4080;SDS011;2055;50.074;8.436;2023-05-07T12:57:01;1.50;;;1.40;;
4080;SDS011;2055;50.074;8.436;2023-05-07T12:59:37;1.20;;;1.10;;
4080;SDS011;2055;50.074;8.436;2023-05-07T13:02:04;1.20;;;1.10;;
4080;SDS011;2055;50.074;8.436;2023-05-07T13:04:30;2.43;;;2.13;;
4080;SDS011;2055;50.074;8.436;2023-05-07T13:06:56;3.00;;;2.80;;
4080;SDS011;2055;50.074;8.436;2023-05-07T13:09:21;1.67;;;1.43;;
4080;SDS011;2055;50.074;8.436;2023-05-07T13:11:47;1.80;;;1.70;;
4080;SDS011;2055;50.074;8.436;2023-05-07T13:14:12;1.70;;;1.60;;
4080;SDS011;2055;50.074;8.436;2023-05-07T13:16:38;1.93;;;1.83;;
4080;SDS011;2055;50.074;8.436;2023-05-07T13:19:04;1.83;;;1.73;;
4080;SDS011;2055;50.074;8.436;2023-05-07T13:21:29;1.30;;;1.20;;
4080;SDS011;2055;50.074;8.436;2023-05-07T13:23:56;1.60;;;1.50;;
4080;SDS011;2055;50.074;8.436;2023-05-07T13:26:23;3.13;;;2.30;;
4080;SDS011;2055;50.074;8.436;2023-05-07T13:28:48;1.63;;;1.53;;
4080;SDS011;2055;50.074;8.436;2023-05-07T13:31:14;1.50;;;1.40;;
4080;SDS011;2055;50.074;8.436;2023-05-07T13:33:39;1.60;;;1.50;;
4080;SDS011;2055;50.074;8.436;2023-05-07T13:36:05;1.67;;;1.57;;
4080;SDS011;2055;50.074;8.436;2023-05-07T13:38:31;1.97;;;1.87;;
4080;SDS011;2055;50.074;8.436;2023-05-07T13:40:56;1.40;;;1.30;;
4080;SDS011;2055;50.074;8.436;2023-05-07T13:43:23;1.40;;;1.30;;
4080;SDS011;2055;50.074;8.436;2023-05-07T13:45:49;1.70;;;1.60;;
4080;SDS011;2055;50.074;8.436;2023-05-07T13:48:15;1.67;;;1.57;;
4080;SDS011;2055;50.074;8.436;2023-05-07T13:50:40;1.70;;;1.60;;
4080;SDS011;2055;50.074;8.436;2023-05-07T13:53:07;2.30;;;2.10;;
4080;SDS011;2055;50.074;8.436;2023-05-07T13:55:32;2.17;;;2.00;;
4080;SDS011;2055;50.074;8.436;2023-05-07T13:57:59;1.73;;;1.63;;
4080;SDS011;2055;50.074;8.436;2023-05-07T14:00:26;2.30;;;2.10;;
4080;SDS011;2055;50.074;8.436;2023-05-07T14:02:53;2.00;;;1.90;;
4080;SDS011;2055;50.074;8.436;2023-05-07T14:05:19;2.00;;;1.90;;
4080;SDS011;2055;50.074;8.436;2023-05-07T14:07:44;2.13;;;1.97;;
4080;SDS011;2055;50.074;8.436;2023-05-07T14:10:10;1.60;;;1.50;;
4080;SDS011;2055;50.074;8.436;2023-05-07T14:12:36;2.37;;;2.17;;
4080;SDS011;2055;50.074;8.436;2023-05-07T14:15:02;2.30;;;2.10;;
4080;SDS011;2055;50.074;8.436;2023-05-07T14:17:28;1.73;;;1.63;;
4080;SDS011;2055;50.074;8.436;2023-05-07T14:19:54;1.50;;;1.40;;
4080;SDS011;2055;50.074;8.436;2023-05-07T14:22:22;2.67;;;2.50;;
4080;SDS011;2055;50.074;8.436;2023-05-07T14:24:48;1.50;;;1.40;;
4080;SDS011;2055;50.074;8.436;2023-05-07T14:27:14;1.40;;;1.30;;
4080;SDS011;2055;50.074;8.436;2023-05-07T14:29:40;1.87;;;1.77;;
4080;SDS011;2055;50.074;8.436;2023-05-07T14:32:06;1.50;;;1.40;;
4080;SDS011;2055;50.074;8.436;2023-05-07T14:34:31;1.30;;;1.20;;
4080;SDS011;2055;50.074;8.436;2023-05-07T14:36:57;1.80;;;1.70;;
4080;SDS011;2055;50.074;8.436;2023-05-07T14:39:23;2.40;;;2.20;;
4080;SDS011;2055;50.074;8.436;2023-05-07T14:41:49;1.73;;;1.63;;
4080;SDS011;2055;50.074;8.436;2023-05-07T14:44:14;1.27;;;1.17;;
4080;SDS011;2055;50.074;8.436;2023-05-07T14:46:40;1.27;;;1.17;;
4080;SDS011;2055;50.074;8.436;2023-05-07T14:49:05;1.33;;;1.23;;
4080;SDS011;2055;50.074;8.436;2023-05-07T14:51:31;1.63;;;1.53;;
4080;SDS011;2055;50.074;8.436;2023-05-07T14:53:58;1.50;;;1.40;;
4080;SDS011;2055;50.074;8.436;2023-05-07T14:56:23;1.63;;;1.60;;
4080;SDS011;2055;50.074;8.436;2023-05-07T14:58:49;1.50;;;1.40;;
4080;SDS011;2055;50.074;8.436;2023-05-07T15:01:15;2.87;;;2.20;;
4080;SDS011;2055;50.074;8.436;2023-05-07T15:03:40;1.20;;;1.10;;
4080;SDS011;2055;50.074;8.436;2023-05-07T15:06:06;2.30;;;2.00;;
4080;SDS011;2055;50.074;8.436;2023-05-07T15:08:31;1.20;;;1.10;;
4080;SDS011;2055;50.074;8.436;2023-05-07T15:10:57;1.00;;;0.90;;
4080;SDS011;2055;50.074;8.436;2023-05-07T15:13:23;1.67;;;1.60;;
4080;SDS011;2055;50.074;8.436;2023-05-07T15:15:48;1.40;;;1.30;;
4080;SDS011;2055;50.074;8.436;2023-05-07T15:18:14;1.03;;;0.93;;
4080;SDS011;2055;50.074;8.436;2023-05-07T15:20:40;1.30;;;1.17;;
4080;SDS011;2055;50.074;8.436;2023-05-07T15:23:07;1.50;;;1.40;;
4080;SDS011;2055;50.074;8.436;2023-05-07T15:25:40;1.20;;;1.10;;
4080;SDS011;2055;50.074;8.436;2023-05-07T15:28:05;1.37;;;1.27;;
4080;SDS011;2055;50.074;8.436;2023-05-07T15:30:31;1.20;;;1.10;;
4080;SDS011;2055;50.074;8.436;2023-05-07T15:32:57;1.20;;;1.10;;
4080;SDS011;2055;50.074;8.436;2023-05-07T15:35:23;1.40;;;1.30;;
4080;SDS011;2055;50.074;8.436;2023-05-07T15:37:50;1.20;;;1.10;;
4080;SDS011;2055;50.074;8.436;2023-05-07T15:40:16;1.30;;;1.20;;
4080;SDS011;2055;50.074;8.436;2023-05-07T15:42:42;9.83;;;1.20;;